sensor_id;sensor_type;location;lat;lon;timestamp;pressure;altitude;pressure_sealevel;temperature;humidity
73106;BME280;61559;50.476;15.588;2024-02-04T00:01:03;97844.36;;;6.08;99.99
73106;BME280;61559;50.476;15.588;2024-02-04T00:03:54;97829.95;;;6.08;100.00
73106;BME280;61559;50.476;15.588;2024-02-04T00:06:25;97839.66;;;6.08;99.99
73106;BME280;61559;50.476;15.588;2024-02-04T00:08:56;97846.66;;;6.08;99.99
73106;BME280;61559;50.476;15.588;2024-02-04T00:11:28;97846.30;;;6.08;99.95
73106;BME280;61559;50.476;15.588;2024-02-04T00:13:57;97839.35;;;6.08;99.85
73106;BME280;61559;50.476;15.588;2024-02-04T00:16:30;97837.33;;;6.06;99.93
73106;BME280;61559;50.476;15.588;2024-02-04T00:19:01;97831.84;;;6.07;99.72
73106;BME280;61559;50.476;15.588;2024-02-04T00:21:32;97824.89;;;6.07;99.81
73106;BME280;61559;50.476;15.588;2024-02-04T00:24:04;97820.21;;;6.09;99.63
73106;BME280;61559;50.476;15.588;2024-02-04T00:26:35;97811.73;;;6.09;99.59
73106;BME280;61559;50.476;15.588;2024-02-04T00:29:05;97818.88;;;6.09;99.58
73106;BME280;61559;50.476;15.588;2024-02-04T00:31:36;97820.64;;;6.07;99.55
73106;BME280;61559;50.476;15.588;2024-02-04T00:34:07;97819.56;;;6.07;99.61
73106;BME280;61559;50.476;15.588;2024-02-04T00:36:39;97830.09;;;6.08;99.55
73106;BME280;61559;50.476;15.588;2024-02-04T00:39:10;97831.57;;;6.08;99.58
73106;BME280;61559;50.476;15.588;2024-02-04T00:41:39;97834.04;;;6.08;99.58
73106;BME280;61559;50.476;15.588;2024-02-04T00:44:11;97828.25;;;6.06;99.60
73106;BME280;61559;50.476;15.588;2024-02-04T00:46:42;97830.59;;;6.06;99.60
73106;BME280;61559;50.476;15.588;2024-02-04T00:49:12;97837.89;;;6.06;99.57
73106;BME280;61559;50.476;15.588;2024-02-04T00:51:41;97842.06;;;6.04;99.59
73106;BME280;61559;50.476;15.588;2024-02-04T00:54:12;97837.52;;;6.03;99.48
73106;BME280;61559;50.476;15.588;2024-02-04T00:56:44;97837.88;;;6.03;99.45
73106;BME280;61559;50.476;15.588;2024-02-04T00:59:15;97840.13;;;6.03;99.38
73106;BME280;61559;50.476;15.588;2024-02-04T01:01:44;97834.20;;;6.03;99.38
73106;BME280;61559;50.476;15.588;2024-02-04T01:04:14;97841.38;;;6.02;99.34
73106;BME280;61559;50.476;15.588;2024-02-04T01:06:44;97831.91;;;6.00;99.29
73106;BME280;61559;50.476;15.588;2024-02-04T01:09:30;97842.35;;;6.00;99.27
73106;BME280;61559;50.476;15.588;2024-02-04T01:12:01;97835.66;;;5.99;99.32
73106;BME280;61559;50.476;15.588;2024-02-04T01:14:33;97845.79;;;5.99;99.35
73106;BME280;61559;50.476;15.588;2024-02-04T01:17:03;97854.13;;;5.99;99.32
73106;BME280;61559;50.476;15.588;2024-02-04T01:19:34;97839.91;;;5.99;99.34
73106;BME280;61559;50.476;15.588;2024-02-04T01:22:06;97834.74;;;5.99;99.24
73106;BME280;61559;50.476;15.588;2024-02-04T01:24:37;97829.94;;;5.99;99.31
73106;BME280;61559;50.476;15.588;2024-02-04T01:27:09;97827.12;;;6.00;99.26
73106;BME280;61559;50.476;15.588;2024-02-04T01:29:40;97833.30;;;6.01;99.22
73106;BME280;61559;50.476;15.588;2024-02-04T01:32:10;97836.77;;;6.02;99.23
73106;BME280;61559;50.476;15.588;2024-02-04T01:34:40;97821.79;;;6.01;99.28
73106;BME280;61559;50.476;15.588;2024-02-04T01:37:10;97818.31;;;6.00;99.38
73106;BME280;61559;50.476;15.588;2024-02-04T01:39:41;97806.83;;;6.00;99.48
73106;BME280;61559;50.476;15.588;2024-02-04T01:42:10;97805.89;;;6.01;99.53
73106;BME280;61559;50.476;15.588;2024-02-04T01:44:42;97815.05;;;6.00;99.68
73106;BME280;61559;50.476;15.588;2024-02-04T01:47:13;97808.77;;;6.00;99.83
73106;BME280;61559;50.476;15.588;2024-02-04T01:49:44;97799.49;;;6.02;99.96
73106;BME280;61559;50.476;15.588;2024-02-04T01:52:16;97787.53;;;6.01;99.94
73106;BME280;61559;50.476;15.588;2024-02-04T01:54:48;97791.58;;;6.01;99.92
73106;BME280;61559;50.476;15.588;2024-02-04T01:57:21;97798.52;;;6.02;99.82
73106;BME280;61559;50.476;15.588;2024-02-04T01:59:53;97799.38;;;6.03;99.76
73106;BME280;61559;50.476;15.588;2024-02-04T02:02:27;97796.15;;;6.04;99.69
73106;BME280;61559;50.476;15.588;2024-02-04T02:04:59;97794.27;;;6.03;99.68
73106;BME280;61559;50.476;15.588;2024-02-04T02:07:32;97795.73;;;6.03;99.75
73106;BME280;61559;50.476;15.588;2024-02-04T02:10:04;97795.78;;;6.05;99.66
73106;BME280;61559;50.476;15.588;2024-02-04T02:12:41;97800.84;;;6.05;99.64
73106;BME280;61559;50.476;15.588;2024-02-04T02:15:18;97813.78;;;6.05;99.72
73106;BME280;61559;50.476;15.588;2024-02-04T02:17:55;97804.48;;;6.05;99.81
73106;BME280;61559;50.476;15.588;2024-02-04T02:20:29;97806.59;;;6.07;99.74
73106;BME280;61559;50.476;15.588;2024-02-04T02:23:10;97793.92;;;6.06;99.77
73106;BME280;61559;50.476;15.588;2024-02-04T02:25:43;97799.19;;;6.06;99.80
73106;BME280;61559;50.476;15.588;2024-02-04T02:28:17;97801.80;;;6.06;99.80
73106;BME280;61559;50.476;15.588;2024-02-04T02:30:48;97799.87;;;6.05;99.92
73106;BME280;61559;50.476;15.588;2024-02-04T02:33:19;97803.96;;;6.05;100.00
73106;BME280;61559;50.476;15.588;2024-02-04T02:35:56;97804.94;;;6.05;99.99
73106;BME280;61559;50.476;15.588;2024-02-04T02:38:36;97800.63;;;6.06;99.96
73106;BME280;61559;50.476;15.588;2024-02-04T02:41:09;97796.36;;;6.07;99.83
73106;BME280;61559;50.476;15.588;2024-02-04T02:43:44;97804.42;;;6.08;99.77
73106;BME280;61559;50.476;15.588;2024-02-04T02:46:18;97801.50;;;6.08;99.70
73106;BME280;61559;50.476;15.588;2024-02-04T02:48:50;97806.20;;;6.09;99.65
73106;BME280;61559;50.476;15.588;2024-02-04T02:51:21;97799.86;;;6.09;99.61
73106;BME280;61559;50.476;15.588;2024-02-04T02:53:52;97794.95;;;6.09;99.58
73106;BME280;61559;50.476;15.588;2024-02-04T02:56:22;97795.14;;;6.11;99.42
73106;BME280;61559;50.476;15.588;2024-02-04T02:58:52;97794.60;;;6.09;99.48
73106;BME280;61559;50.476;15.588;2024-02-04T03:01:23;97794.35;;;6.08;99.55
73106;BME280;61559;50.476;15.588;2024-02-04T03:03:54;97789.79;;;6.09;99.44
73106;BME280;61559;50.476;15.588;2024-02-04T03:06:26;97781.49;;;6.10;99.47
73106;BME280;61559;50.476;15.588;2024-02-04T03:08:57;97785.88;;;6.12;99.42
73106;BME280;61559;50.476;15.588;2024-02-04T03:11:28;97778.51;;;6.12;99.42
73106;BME280;61559;50.476;15.588;2024-02-04T03:13:59;97781.72;;;6.13;99.38
73106;BME280;61559;50.476;15.588;2024-02-04T03:16:30;97780.80;;;6.13;99.31
73106;BME280;61559;50.476;15.588;2024-02-04T03:19:04;97773.02;;;6.14;99.34
73106;BME280;61559;50.476;15.588;2024-02-04T03:21:36;97773.31;;;6.15;99.37
73106;BME280;61559;50.476;15.588;2024-02-04T03:24:07;97784.14;;;6.17;99.29
73106;BME280;61559;50.476;15.588;2024-02-04T03:26:38;97792.73;;;6.17;99.27
73106;BME280;61559;50.476;15.588;2024-02-04T03:29:10;97786.89;;;6.19;99.23
73106;BME280;61559;50.476;15.588;2024-02-04T03:31:39;97784.11;;;6.20;99.14
73106;BME280;61559;50.476;15.588;2024-02-04T03:34:10;97785.35;;;6.19;99.04
73106;BME280;61559;50.476;15.588;2024-02-04T03:36:42;97775.21;;;6.20;99.05
73106;BME280;61559;50.476;15.588;2024-02-04T03:39:14;97773.81;;;6.22;98.99
73106;BME280;61559;50.476;15.588;2024-02-04T03:41:45;97765.78;;;6.22;98.84
73106;BME280;61559;50.476;15.588;2024-02-04T03:44:16;97749.31;;;6.22;98.75
73106;BME280;61559;50.476;15.588;2024-02-04T03:46:50;97739.96;;;6.21;98.78
73106;BME280;61559;50.476;15.588;2024-02-04T03:49:22;97761.92;;;6.20;98.59
73106;BME280;61559;50.476;15.588;2024-02-04T03:51:54;97767.76;;;6.19;98.67
73106;BME280;61559;50.476;15.588;2024-02-04T03:54:25;97757.48;;;6.18;98.56
73106;BME280;61559;50.476;15.588;2024-02-04T03:56:56;97746.03;;;6.17;98.51
73106;BME280;61559;50.476;15.588;2024-02-04T03:59:27;97747.48;;;6.16;98.32
73106;BME280;61559;50.476;15.588;2024-02-04T04:01:59;97743.31;;;6.13;98.22
73106;BME280;61559;50.476;15.588;2024-02-04T04:04:30;97765.59;;;6.10;98.20
73106;BME280;61559;50.476;15.588;2024-02-04T04:07:02;97765.73;;;6.07;98.19
73106;BME280;61559;50.476;15.588;2024-02-04T04:09:34;97758.86;;;6.05;98.28
73106;BME280;61559;50.476;15.588;2024-02-04T04:12:06;97758.63;;;6.02;98.27
73106;BME280;61559;50.476;15.588;2024-02-04T04:14:37;97758.30;;;6.00;98.48
73106;BME280;61559;50.476;15.588;2024-02-04T04:17:09;97766.69;;;5.99;98.51
73106;BME280;61559;50.476;15.588;2024-02-04T04:19:41;97765.73;;;5.98;98.59
73106;BME280;61559;50.476;15.588;2024-02-04T04:22:13;97765.27;;;5.98;98.45
73106;BME280;61559;50.476;15.588;2024-02-04T04:24:44;97764.20;;;5.98;98.57
73106;BME280;61559;50.476;15.588;2024-02-04T04:27:15;97758.92;;;5.99;98.46
73106;BME280;61559;50.476;15.588;2024-02-04T04:29:46;97760.60;;;6.00;98.33
73106;BME280;61559;50.476;15.588;2024-02-04T04:32:16;97761.82;;;6.01;98.29
73106;BME280;61559;50.476;15.588;2024-02-04T04:34:46;97760.25;;;5.99;98.13
73106;BME280;61559;50.476;15.588;2024-02-04T04:37:17;97758.98;;;5.98;98.02
73106;BME280;61559;50.476;15.588;2024-02-04T04:39:49;97755.34;;;5.99;97.95
73106;BME280;61559;50.476;15.588;2024-02-04T04:42:20;97743.29;;;5.99;97.84
73106;BME280;61559;50.476;15.588;2024-02-04T04:44:51;97745.73;;;5.99;97.74
73106;BME280;61559;50.476;15.588;2024-02-04T04:47:23;97740.92;;;5.99;97.73
73106;BME280;61559;50.476;15.588;2024-02-04T04:49:52;97738.06;;;5.99;97.70
73106;BME280;61559;50.476;15.588;2024-02-04T04:52:23;97734.86;;;5.97;97.68
73106;BME280;61559;50.476;15.588;2024-02-04T04:54:56;97739.81;;;5.97;97.70
73106;BME280;61559;50.476;15.588;2024-02-04T04:57:27;97746.16;;;5.97;97.70
73106;BME280;61559;50.476;15.588;2024-02-04T04:59:56;97744.11;;;5.97;97.76
73106;BME280;61559;50.476;15.588;2024-02-04T05:02:31;97747.66;;;5.94;97.85
73106;BME280;61559;50.476;15.588;2024-02-04T05:05:02;97746.80;;;5.93;97.97
73106;BME280;61559;50.476;15.588;2024-02-04T05:07:34;97741.39;;;5.92;98.00
73106;BME280;61559;50.476;15.588;2024-02-04T05:10:06;97733.59;;;5.89;98.14
73106;BME280;61559;50.476;15.588;2024-02-04T05:12:38;97738.80;;;5.88;98.17
73106;BME280;61559;50.476;15.588;2024-02-04T05:15:10;97734.36;;;5.86;98.12
73106;BME280;61559;50.476;15.588;2024-02-04T05:17:41;97725.05;;;5.86;97.73
73106;BME280;61559;50.476;15.588;2024-02-04T05:20:13;97727.14;;;5.87;97.68
73106;BME280;61559;50.476;15.588;2024-02-04T05:22:44;97725.66;;;5.87;97.70
73106;BME280;61559;50.476;15.588;2024-02-04T05:25:14;97723.57;;;5.88;97.61
73106;BME280;61559;50.476;15.588;2024-02-04T05:27:44;97737.56;;;5.88;97.60
73106;BME280;61559;50.476;15.588;2024-02-04T05:30:16;97735.27;;;5.86;97.83
73106;BME280;61559;50.476;15.588;2024-02-04T05:32:47;97742.53;;;5.87;97.89
73106;BME280;61559;50.476;15.588;2024-02-04T05:35:18;97735.21;;;5.88;97.87
73106;BME280;61559;50.476;15.588;2024-02-04T05:37:48;97735.11;;;5.90;97.47
73106;BME280;61559;50.476;15.588;2024-02-04T05:40:19;97741.95;;;5.93;97.27
73106;BME280;61559;50.476;15.588;2024-02-04T05:42:52;97746.41;;;5.96;96.86
73106;BME280;61559;50.476;15.588;2024-02-04T05:45:23;97750.11;;;6.01;96.68
73106;BME280;61559;50.476;15.588;2024-02-04T05:47:55;97752.18;;;6.04;96.69
73106;BME280;61559;50.476;15.588;2024-02-04T05:50:26;97759.89;;;6.07;96.72
73106;BME280;61559;50.476;15.588;2024-02-04T05:52:58;97761.00;;;6.09;96.78
73106;BME280;61559;50.476;15.588;2024-02-04T05:55:30;97769.42;;;6.10;96.85
73106;BME280;61559;50.476;15.588;2024-02-04T05:58:01;97762.30;;;6.11;96.88
73106;BME280;61559;50.476;15.588;2024-02-04T06:00:32;97758.52;;;6.12;96.84
73106;BME280;61559;50.476;15.588;2024-02-04T06:03:04;97756.52;;;6.13;96.74
73106;BME280;61559;50.476;15.588;2024-02-04T06:05:35;97761.88;;;6.13;96.81
73106;BME280;61559;50.476;15.588;2024-02-04T06:08:05;97760.86;;;6.14;96.84
73106;BME280;61559;50.476;15.588;2024-02-04T06:10:37;97767.56;;;6.12;96.78
73106;BME280;61559;50.476;15.588;2024-02-04T06:13:07;97753.15;;;6.12;96.96
73106;BME280;61559;50.476;15.588;2024-02-04T06:15:39;97761.89;;;6.12;96.77
73106;BME280;61559;50.476;15.588;2024-02-04T06:18:10;97764.20;;;6.10;96.79
73106;BME280;61559;50.476;15.588;2024-02-04T06:20:42;97766.21;;;6.09;96.94
73106;BME280;61559;50.476;15.588;2024-02-04T06:23:13;97770.56;;;6.09;97.03
73106;BME280;61559;50.476;15.588;2024-02-04T06:25:44;97754.05;;;6.09;97.16
73106;BME280;61559;50.476;15.588;2024-02-04T06:28:16;97740.60;;;6.09;97.15
73106;BME280;61559;50.476;15.588;2024-02-04T06:30:48;97741.11;;;6.08;97.10
73106;BME280;61559;50.476;15.588;2024-02-04T06:33:19;97737.98;;;6.09;97.06
73106;BME280;61559;50.476;15.588;2024-02-04T06:35:51;97745.56;;;6.08;97.02
73106;BME280;61559;50.476;15.588;2024-02-04T06:38:22;97752.03;;;6.07;96.87
73106;BME280;61559;50.476;15.588;2024-02-04T06:40:53;97753.55;;;6.04;97.08
73106;BME280;61559;50.476;15.588;2024-02-04T06:43:24;97758.89;;;6.03;97.06
73106;BME280;61559;50.476;15.588;2024-02-04T06:45:56;97765.55;;;6.01;97.10
73106;BME280;61559;50.476;15.588;2024-02-04T06:48:27;97765.05;;;6.00;97.19
73106;BME280;61559;50.476;15.588;2024-02-04T06:50:59;97759.38;;;5.99;97.16
73106;BME280;61559;50.476;15.588;2024-02-04T06:53:31;97760.75;;;5.99;97.21
73106;BME280;61559;50.476;15.588;2024-02-04T06:56:03;97763.32;;;5.99;97.17
73106;BME280;61559;50.476;15.588;2024-02-04T06:58:36;97766.48;;;6.00;97.08
73106;BME280;61559;50.476;15.588;2024-02-04T07:01:08;97767.45;;;6.00;97.15
73106;BME280;61559;50.476;15.588;2024-02-04T07:03:39;97764.33;;;6.00;97.14
73106;BME280;61559;50.476;15.588;2024-02-04T07:06:10;97759.27;;;5.99;97.25
73106;BME280;61559;50.476;15.588;2024-02-04T07:08:42;97760.10;;;5.98;97.30
73106;BME280;61559;50.476;15.588;2024-02-04T07:11:13;97758.69;;;5.96;97.34
73106;BME280;61559;50.476;15.588;2024-02-04T07:13:42;97756.30;;;5.95;97.47
73106;BME280;61559;50.476;15.588;2024-02-04T07:16:14;97751.88;;;5.91;97.49
73106;BME280;61559;50.476;15.588;2024-02-04T07:18:43;97748.05;;;5.90;97.69
73106;BME280;61559;50.476;15.588;2024-02-04T07:21:14;97754.81;;;5.86;97.78
73106;BME280;61559;50.476;15.588;2024-02-04T07:23:46;97756.09;;;5.85;97.90
73106;BME280;61559;50.476;15.588;2024-02-04T07:26:15;97757.63;;;5.84;97.98
73106;BME280;61559;50.476;15.588;2024-02-04T07:28:46;97752.13;;;5.83;98.08
73106;BME280;61559;50.476;15.588;2024-02-04T07:31:17;97747.78;;;5.82;98.15
73106;BME280;61559;50.476;15.588;2024-02-04T07:33:47;97733.21;;;5.82;98.16
73106;BME280;61559;50.476;15.588;2024-02-04T07:36:18;97729.30;;;5.80;98.30
73106;BME280;61559;50.476;15.588;2024-02-04T07:38:49;97722.75;;;5.81;98.47
73106;BME280;61559;50.476;15.588;2024-02-04T07:41:25;97720.65;;;5.82;98.58
73106;BME280;61559;50.476;15.588;2024-02-04T07:43:57;97726.00;;;5.83;98.77
73106;BME280;61559;50.476;15.588;2024-02-04T07:46:28;97724.05;;;5.83;98.91
73106;BME280;61559;50.476;15.588;2024-02-04T07:48:59;97726.50;;;5.84;99.16
73106;BME280;61559;50.476;15.588;2024-02-04T07:51:31;97729.40;;;5.86;99.22
73106;BME280;61559;50.476;15.588;2024-02-04T07:54:05;97731.80;;;5.87;99.40
73106;BME280;61559;50.476;15.588;2024-02-04T07:56:36;97726.38;;;5.90;99.41
73106;BME280;61559;50.476;15.588;2024-02-04T07:59:08;97731.02;;;5.91;99.52
73106;BME280;61559;50.476;15.588;2024-02-04T08:01:39;97750.08;;;5.93;99.56
73106;BME280;61559;50.476;15.588;2024-02-04T08:04:10;97750.69;;;5.93;99.75
73106;BME280;61559;50.476;15.588;2024-02-04T08:06:42;97745.55;;;5.95;99.72
73106;BME280;61559;50.476;15.588;2024-02-04T08:09:13;97736.85;;;5.98;99.88
73106;BME280;61559;50.476;15.588;2024-02-04T08:11:44;97733.77;;;5.99;99.95
73106;BME280;61559;50.476;15.588;2024-02-04T08:14:16;97732.41;;;6.02;99.97
73106;BME280;61559;50.476;15.588;2024-02-04T08:16:48;97728.73;;;6.06;100.00
73106;BME280;61559;50.476;15.588;2024-02-04T08:19:18;97725.71;;;6.08;99.99
73106;BME280;61559;50.476;15.588;2024-02-04T08:21:49;97728.09;;;6.07;100.00
73106;BME280;61559;50.476;15.588;2024-02-04T08:24:20;97715.84;;;6.09;99.98
73106;BME280;61559;50.476;15.588;2024-02-04T08:26:50;97712.42;;;6.09;100.00
73106;BME280;61559;50.476;15.588;2024-02-04T08:29:21;97717.50;;;6.07;100.00
73106;BME280;61559;50.476;15.588;2024-02-04T08:31:53;97713.45;;;6.08;100.00
73106;BME280;61559;50.476;15.588;2024-02-04T08:34:24;97711.34;;;6.10;100.00
73106;BME280;61559;50.476;15.588;2024-02-04T08:36:56;97712.53;;;6.13;100.00
73106;BME280;61559;50.476;15.588;2024-02-04T08:39:27;97713.33;;;6.15;100.00
73106;BME280;61559;50.476;15.588;2024-02-04T08:42:00;97709.14;;;6.18;100.00
73106;BME280;61559;50.476;15.588;2024-02-04T08:44:31;97706.70;;;6.24;100.00
73106;BME280;61559;50.476;15.588;2024-02-04T08:47:09;97697.63;;;6.30;100.00
73106;BME280;61559;50.476;15.588;2024-02-04T08:49:42;97691.31;;;6.35;100.00
73106;BME280;61559;50.476;15.588;2024-02-04T08:52:14;97693.69;;;6.43;100.00
73106;BME280;61559;50.476;15.588;2024-02-04T08:54:45;97696.67;;;6.50;100.00
73106;BME280;61559;50.476;15.588;2024-02-04T08:57:16;97690.98;;;6.54;100.00
73106;BME280;61559;50.476;15.588;2024-02-04T08:59:49;97696.80;;;6.57;100.00
73106;BME280;61559;50.476;15.588;2024-02-04T09:02:18;97691.65;;;6.59;100.00
73106;BME280;61559;50.476;15.588;2024-02-04T09:04:48;97689.08;;;6.60;100.00
73106;BME280;61559;50.476;15.588;2024-02-04T09:07:19;97693.17;;;6.61;100.00
73106;BME280;61559;50.476;15.588;2024-02-04T09:09:51;97693.96;;;6.62;100.00
73106;BME280;61559;50.476;15.588;2024-02-04T09:12:22;97696.73;;;6.63;100.00
73106;BME280;61559;50.476;15.588;2024-02-04T09:14:53;97705.11;;;6.63;100.00
73106;BME280;61559;50.476;15.588;2024-02-04T09:17:23;97698.00;;;6.63;100.00
73106;BME280;61559;50.476;15.588;2024-02-04T09:19:54;97708.50;;;6.62;100.00
73106;BME280;61559;50.476;15.588;2024-02-04T09:22:26;97704.64;;;6.64;100.00
73106;BME280;61559;50.476;15.588;2024-02-04T09:24:57;97705.75;;;6.65;100.00
73106;BME280;61559;50.476;15.588;2024-02-04T09:27:31;97708.67;;;6.65;100.00
73106;BME280;61559;50.476;15.588;2024-02-04T09:30:02;97710.09;;;6.66;100.00
73106;BME280;61559;50.476;15.588;2024-02-04T09:32:33;97698.68;;;6.67;100.00
73106;BME280;61559;50.476;15.588;2024-02-04T09:35:06;97703.73;;;6.67;100.00
73106;BME280;61559;50.476;15.588;2024-02-04T09:37:39;97705.09;;;6.69;100.00
73106;BME280;61559;50.476;15.588;2024-02-04T09:40:12;97700.73;;;6.70;99.97
73106;BME280;61559;50.476;15.588;2024-02-04T09:42:44;97699.52;;;6.72;99.99
73106;BME280;61559;50.476;15.588;2024-02-04T09:45:15;97706.05;;;6.74;100.00
73106;BME280;61559;50.476;15.588;2024-02-04T09:47:47;97702.10;;;6.75;99.98
73106;BME280;61559;50.476;15.588;2024-02-04T09:50:20;97691.75;;;6.76;100.00
73106;BME280;61559;50.476;15.588;2024-02-04T09:52:58;97693.39;;;6.76;99.98
73106;BME280;61559;50.476;15.588;2024-02-04T09:55:31;97699.82;;;6.77;99.94
73106;BME280;61559;50.476;15.588;2024-02-04T09:58:03;97691.86;;;6.79;99.89
73106;BME280;61559;50.476;15.588;2024-02-04T10:00:34;97687.70;;;6.80;99.87
73106;BME280;61559;50.476;15.588;2024-02-04T10:03:07;97679.94;;;6.82;99.86
73106;BME280;61559;50.476;15.588;2024-02-04T10:05:38;97683.14;;;6.83;99.96
73106;BME280;61559;50.476;15.588;2024-02-04T10:08:09;97676.80;;;6.87;99.84
73106;BME280;61559;50.476;15.588;2024-02-04T10:10:41;97670.19;;;6.94;99.93
73106;BME280;61559;50.476;15.588;2024-02-04T10:13:13;97680.73;;;6.98;99.81
73106;BME280;61559;50.476;15.588;2024-02-04T10:15:45;97678.20;;;7.00;99.73
73106;BME280;61559;50.476;15.588;2024-02-04T10:18:18;97678.95;;;7.00;99.45
73106;BME280;61559;50.476;15.588;2024-02-04T10:20:50;97658.98;;;7.03;99.37
73106;BME280;61559;50.476;15.588;2024-02-04T10:23:21;97664.70;;;7.05;99.28
73106;BME280;61559;50.476;15.588;2024-02-04T10:26:00;97664.36;;;7.07;99.27
73106;BME280;61559;50.476;15.588;2024-02-04T10:28:34;97659.95;;;7.07;99.24
73106;BME280;61559;50.476;15.588;2024-02-04T10:31:07;97666.44;;;7.05;98.95
73106;BME280;61559;50.476;15.588;2024-02-04T10:33:39;97661.84;;;7.08;98.97
73106;BME280;61559;50.476;15.588;2024-02-04T10:36:11;97647.87;;;7.10;99.04
73106;BME280;61559;50.476;15.588;2024-02-04T10:38:42;97642.98;;;7.12;98.84
73106;BME280;61559;50.476;15.588;2024-02-04T10:41:15;97641.42;;;7.13;98.58
73106;BME280;61559;50.476;15.588;2024-02-04T10:43:47;97636.27;;;7.14;98.55
73106;BME280;61559;50.476;15.588;2024-02-04T10:46:19;97634.28;;;7.17;98.55
73106;BME280;61559;50.476;15.588;2024-02-04T10:48:54;97636.55;;;7.20;98.50
73106;BME280;61559;50.476;15.588;2024-02-04T10:51:27;97636.33;;;7.22;98.41
73106;BME280;61559;50.476;15.588;2024-02-04T10:54:00;97633.29;;;7.22;98.39
73106;BME280;61559;50.476;15.588;2024-02-04T10:56:36;97629.97;;;7.21;98.53
73106;BME280;61559;50.476;15.588;2024-02-04T10:59:09;97618.88;;;7.20;98.69
73106;BME280;61559;50.476;15.588;2024-02-04T11:01:42;97612.85;;;7.18;98.78
73106;BME280;61559;50.476;15.588;2024-02-04T11:04:14;97610.46;;;7.17;98.86
73106;BME280;61559;50.476;15.588;2024-02-04T11:06:45;97605.48;;;7.16;99.14
73106;BME280;61559;50.476;15.588;2024-02-04T11:09:17;97600.09;;;7.13;99.17
73106;BME280;61559;50.476;15.588;2024-02-04T11:11:52;97612.95;;;7.13;99.47
73106;BME280;61559;50.476;15.588;2024-02-04T11:14:25;97611.20;;;7.13;99.59
73106;BME280;61559;50.476;15.588;2024-02-04T11:17:16;97612.59;;;7.13;99.81
73106;BME280;61559;50.476;15.588;2024-02-04T11:20:02;97613.77;;;7.13;99.97
73106;BME280;61559;50.476;15.588;2024-02-04T11:22:51;97598.69;;;7.14;100.00
73106;BME280;61559;50.476;15.588;2024-02-04T11:25:46;97591.77;;;7.14;100.00
73106;BME280;61559;50.476;15.588;2024-02-04T11:28:19;97585.09;;;7.15;100.00
73106;BME280;61559;50.476;15.588;2024-02-04T11:30:52;97584.36;;;7.19;100.00
73106;BME280;61559;50.476;15.588;2024-02-04T11:33:24;97571.45;;;7.23;100.00
73106;BME280;61559;50.476;15.588;2024-02-04T11:36:04;97572.45;;;7.27;100.00
73106;BME280;61559;50.476;15.588;2024-02-04T11:38:38;97561.80;;;7.30;100.00
73106;BME280;61559;50.476;15.588;2024-02-04T11:41:10;97576.11;;;7.32;100.00
73106;BME280;61559;50.476;15.588;2024-02-04T11:43:41;97578.25;;;7.32;99.87
73106;BME280;61559;50.476;15.588;2024-02-04T11:46:18;97580.65;;;7.33;99.80
73106;BME280;61559;50.476;15.588;2024-02-04T11:48:52;97574.89;;;7.34;99.54
73106;BME280;61559;50.476;15.588;2024-02-04T11:51:25;97571.05;;;7.34;99.64
73106;BME280;61559;50.476;15.588;2024-02-04T11:53:56;97569.61;;;7.37;99.53
73106;BME280;61559;50.476;15.588;2024-02-04T11:56:28;97567.14;;;7.42;99.14
73106;BME280;61559;50.476;15.588;2024-02-04T11:59:00;97557.27;;;7.43;98.97
73106;BME280;61559;50.476;15.588;2024-02-04T12:01:34;97561.00;;;7.43;98.99
73106;BME280;61559;50.476;15.588;2024-02-04T12:04:15;97564.09;;;7.42;98.65
73106;BME280;61559;50.476;15.588;2024-02-04T12:06:46;97557.89;;;7.43;98.34
73106;BME280;61559;50.476;15.588;2024-02-04T12:09:19;97554.87;;;7.42;98.08
73106;BME280;61559;50.476;15.588;2024-02-04T12:11:53;97553.63;;;7.42;97.96
73106;BME280;61559;50.476;15.588;2024-02-04T12:14:24;97539.89;;;7.43;97.98
73106;BME280;61559;50.476;15.588;2024-02-04T12:16:56;97535.43;;;7.43;98.24
73106;BME280;61559;50.476;15.588;2024-02-04T12:19:27;97531.18;;;7.43;98.26
73106;BME280;61559;50.476;15.588;2024-02-04T12:21:59;97522.29;;;7.45;97.97
73106;BME280;61559;50.476;15.588;2024-02-04T12:24:30;97516.52;;;7.49;98.15
73106;BME280;61559;50.476;15.588;2024-02-04T12:27:03;97516.36;;;7.51;97.99
73106;BME280;61559;50.476;15.588;2024-02-04T12:29:35;97518.67;;;7.54;97.68
73106;BME280;61559;50.476;15.588;2024-02-04T12:32:06;97512.95;;;7.56;97.82
73106;BME280;61559;50.476;15.588;2024-02-04T12:34:39;97511.70;;;7.56;97.80
73106;BME280;61559;50.476;15.588;2024-02-04T12:37:12;97504.41;;;7.57;97.68
73106;BME280;61559;50.476;15.588;2024-02-04T12:39:44;97501.23;;;7.58;97.48
73106;BME280;61559;50.476;15.588;2024-02-04T12:42:17;97502.33;;;7.56;97.47
73106;BME280;61559;50.476;15.588;2024-02-04T12:44:51;97499.99;;;7.55;97.54
73106;BME280;61559;50.476;15.588;2024-02-04T12:47:23;97490.09;;;7.53;97.69
73106;BME280;61559;50.476;15.588;2024-02-04T12:50:00;97495.23;;;7.52;97.38
73106;BME280;61559;50.476;15.588;2024-02-04T12:52:33;97483.54;;;7.52;97.47
73106;BME280;61559;50.476;15.588;2024-02-04T12:55:20;97482.05;;;7.53;97.17
73106;BME280;61559;50.476;15.588;2024-02-04T12:58:02;97467.40;;;7.55;97.08
73106;BME280;61559;50.476;15.588;2024-02-04T13:00:36;97459.22;;;7.57;97.02
73106;BME280;61559;50.476;15.588;2024-02-04T13:03:08;97456.41;;;7.59;96.56
73106;BME280;61559;50.476;15.588;2024-02-04T13:05:40;97445.21;;;7.62;96.32
73106;BME280;61559;50.476;15.588;2024-02-04T13:08:11;97445.56;;;7.66;96.15
73106;BME280;61559;50.476;15.588;2024-02-04T13:10:42;97444.96;;;7.70;95.90
73106;BME280;61559;50.476;15.588;2024-02-04T13:13:16;97439.34;;;7.71;95.53
73106;BME280;61559;50.476;15.588;2024-02-04T13:15:49;97435.64;;;7.72;95.17
73106;BME280;61559;50.476;15.588;2024-02-04T13:18:20;97436.45;;;7.72;95.11
73106;BME280;61559;50.476;15.588;2024-02-04T13:20:51;97433.58;;;7.72;94.99
73106;BME280;61559;50.476;15.588;2024-02-04T13:23:22;97429.71;;;7.71;94.46
73106;BME280;61559;50.476;15.588;2024-02-04T13:25:54;97437.52;;;7.70;94.69